sensor_id;sensor_type;location;lat;lon;timestamp;P1;durP1;ratioP1;P2;durP2;ratioP2
78901;SDS011;68290;44.716;37.756;2023-02-28T09:00:50;21.70;;;8.48;;
78901;SDS011;68290;44.716;37.756;2023-02-28T09:01:51;19.70;;;8.70;;
78901;SDS011;68290;44.716;37.756;2023-02-28T09:02:52;18.80;;;8.52;;
78901;SDS011;68290;44.716;37.756;2023-02-28T09:03:55;21.02;;;8.73;;
78901;SDS011;68290;44.716;37.756;2023-02-28T09:04:57;23.90;;;8.18;;
78901;SDS011;68290;44.716;37.756;2023-02-28T09:05:59;21.58;;;9.13;;
78901;SDS011;68290;44.716;37.756;2023-02-28T09:07:01;21.48;;;9.38;;
78901;SDS011;68290;44.716;37.756;2023-02-28T09:08:02;22.02;;;9.07;;
78901;SDS011;68290;44.716;37.756;2023-02-28T09:09:34;21.27;;;8.57;;
78901;SDS011;68290;44.716;37.756;2023-02-28T09:10:38;19.48;;;8.88;;
78901;SDS011;68290;44.716;37.756;2023-02-28T09:11:39;19.80;;;8.18;;
78901;SDS011;68290;44.716;37.756;2023-02-28T09:12:41;22.50;;;8.90;;
78901;SDS011;68290;44.716;37.756;2023-02-28T09:13:46;20.55;;;8.55;;
78901;SDS011;68290;44.716;37.756;2023-02-28T09:14:50;19.92;;;8.60;;
78901;SDS011;68290;44.716;37.756;2023-02-28T09:15:52;20.73;;;8.55;;
78901;SDS011;68290;44.716;37.756;2023-02-28T09:16:55;19.92;;;8.25;;
78901;SDS011;68290;44.716;37.756;2023-02-28T09:17:57;18.73;;;7.88;;
78901;SDS011;68290;44.716;37.756;2023-02-28T09:19:23;22.58;;;7.85;;
78901;SDS011;68290;44.716;37.756;2023-02-28T09:20:25;20.30;;;8.18;;
78901;SDS011;68290;44.716;37.756;2023-02-28T09:22:28;18.92;;;7.95;;
78901;SDS011;68290;44.716;37.756;2023-02-28T09:23:29;20.60;;;7.35;;
78901;SDS011;68290;44.716;37.756;2023-02-28T09:24:30;25.38;;;8.38;;
78901;SDS011;68290;44.716;37.756;2023-02-28T09:25:32;13.95;;;7.43;;
78901;SDS011;68290;44.716;37.756;2023-02-28T09:26:33;18.85;;;7.72;;
78901;SDS011;68290;44.716;37.756;2023-02-28T09:27:35;18.30;;;8.07;;
78901;SDS011;68290;44.716;37.756;2023-02-28T09:28:37;15.15;;;7.57;;
78901;SDS011;68290;44.716;37.756;2023-02-28T09:29:38;16.30;;;7.72;;
78901;SDS011;68290;44.716;37.756;2023-02-28T09:30:39;19.05;;;7.60;;
78901;SDS011;68290;44.716;37.756;2023-02-28T09:31:40;15.65;;;7.35;;
78901;SDS011;68290;44.716;37.756;2023-02-28T09:32:41;16.95;;;7.78;;
78901;SDS011;68290;44.716;37.756;2023-02-28T09:33:42;18.15;;;7.20;;
78901;SDS011;68290;44.716;37.756;2023-02-28T09:34:43;17.15;;;8.10;;
78901;SDS011;68290;44.716;37.756;2023-02-28T09:35:45;18.65;;;8.50;;
78901;SDS011;68290;44.716;37.756;2023-02-28T09:36:45;16.55;;;8.27;;
78901;SDS011;68290;44.716;37.756;2023-02-28T09:37:50;15.90;;;8.02;;
78901;SDS011;68290;44.716;37.756;2023-02-28T09:38:52;16.45;;;7.57;;
78901;SDS011;68290;44.716;37.756;2023-02-28T09:39:53;16.13;;;7.80;;
78901;SDS011;68290;44.716;37.756;2023-02-28T09:41:08;15.45;;;7.47;;
78901;SDS011;68290;44.716;37.756;2023-02-28T09:42:13;15.65;;;7.93;;
78901;SDS011;68290;44.716;37.756;2023-02-28T09:43:20;21.23;;;7.53;;
78901;SDS011;68290;44.716;37.756;2023-02-28T09:44:31;15.20;;;7.47;;
78901;SDS011;68290;44.716;37.756;2023-02-28T09:45:34;16.13;;;7.88;;
78901;SDS011;68290;44.716;37.756;2023-02-28T09:46:38;14.52;;;7.22;;
78901;SDS011;68290;44.716;37.756;2023-02-28T09:47:43;14.00;;;6.82;;
78901;SDS011;68290;44.716;37.756;2023-02-28T09:48:45;16.38;;;7.00;;
78901;SDS011;68290;44.716;37.756;2023-02-28T09:49:48;16.38;;;7.05;;
78901;SDS011;68290;44.716;37.756;2023-02-28T09:50:50;17.92;;;6.75;;
78901;SDS011;68290;44.716;37.756;2023-02-28T09:54:04;14.75;;;6.90;;
78901;SDS011;68290;44.716;37.756;2023-02-28T09:56:26;15.75;;;7.30;;
78901;SDS011;68290;44.716;37.756;2023-02-28T09:57:38;17.02;;;7.00;;
78901;SDS011;68290;44.716;37.756;2023-02-28T09:58:47;18.33;;;7.10;;
78901;SDS011;68290;44.716;37.756;2023-02-28T10:01:25;14.20;;;7.63;;
78901;SDS011;68290;44.716;37.756;2023-02-28T10:02:52;15.70;;;6.97;;
78901;SDS011;68290;44.716;37.756;2023-02-28T10:05:28;13.55;;;7.40;;
78901;SDS011;68290;44.716;37.756;2023-02-28T10:06:36;15.18;;;7.15;;
78901;SDS011;68290;44.716;37.756;2023-02-28T10:11:29;13.52;;;7.05;;
78901;SDS011;68290;44.716;37.756;2023-02-28T10:12:34;13.15;;;7.00;;
78901;SDS011;68290;44.716;37.756;2023-02-28T10:13:54;10.98;;;6.55;;
78901;SDS011;68290;44.716;37.756;2023-02-28T10:15:03;12.32;;;7.22;;
78901;SDS011;68290;44.716;37.756;2023-02-28T10:17:13;14.55;;;6.95;;
78901;SDS011;68290;44.716;37.756;2023-02-28T10:18:21;13.68;;;6.50;;
78901;SDS011;68290;44.716;37.756;2023-02-28T10:19:33;11.75;;;6.22;;
78901;SDS011;68290;44.716;37.756;2023-02-28T10:20:41;11.63;;;6.40;;
78901;SDS011;68290;44.716;37.756;2023-02-28T10:21:46;14.27;;;6.85;;
78901;SDS011;68290;44.716;37.756;2023-02-28T10:22:53;10.45;;;5.90;;
78901;SDS011;68290;44.716;37.756;2023-02-28T10:24:32;12.60;;;6.35;;
78901;SDS011;68290;44.716;37.756;2023-02-28T10:25:41;15.45;;;6.70;;
78901;SDS011;68290;44.716;37.756;2023-02-28T10:27:16;13.25;;;6.00;;
78901;SDS011;68290;44.716;37.756;2023-02-28T10:28:20;12.25;;;6.75;;
78901;SDS011;68290;44.716;37.756;2023-02-28T10:29:21;10.85;;;6.57;;
78901;SDS011;68290;44.716;37.756;2023-02-28T10:30:24;13.77;;;6.03;;
78901;SDS011;68290;44.716;37.756;2023-02-28T10:31:25;10.43;;;6.25;;
78901;SDS011;68290;44.716;37.756;2023-02-28T10:32:29;11.20;;;6.25;;
78901;SDS011;68290;44.716;37.756;2023-02-28T10:33:34;15.45;;;6.35;;
78901;SDS011;68290;44.716;37.756;2023-02-28T10:34:36;13.00;;;6.50;;
78901;SDS011;68290;44.716;37.756;2023-02-28T10:35:38;13.32;;;6.45;;
78901;SDS011;68290;44.716;37.756;2023-02-28T10:36:39;10.82;;;6.28;;
78901;SDS011;68290;44.716;37.756;2023-02-28T10:37:47;9.45;;;5.72;;
78901;SDS011;68290;44.716;37.756;2023-02-28T10:38:55;12.73;;;6.07;;
78901;SDS011;68290;44.716;37.756;2023-02-28T10:39:57;13.30;;;6.15;;
78901;SDS011;68290;44.716;37.756;2023-02-28T10:42:26;12.52;;;6.53;;
78901;SDS011;68290;44.716;37.756;2023-02-28T10:43:30;11.65;;;5.97;;
78901;SDS011;68290;44.716;37.756;2023-02-28T10:44:31;11.00;;;6.00;;
78901;SDS011;68290;44.716;37.756;2023-02-28T10:45:33;11.70;;;6.15;;
78901;SDS011;68290;44.716;37.756;2023-02-28T10:46:37;10.15;;;5.55;;
78901;SDS011;68290;44.716;37.756;2023-02-28T10:47:57;12.98;;;6.53;;
78901;SDS011;68290;44.716;37.756;2023-02-28T10:50:08;10.75;;;6.00;;
78901;SDS011;68290;44.716;37.756;2023-02-28T17:06:40;8.30;;;3.30;;
78901;SDS011;68290;44.716;37.756;2023-02-28T17:07:41;8.93;;;4.25;;
78901;SDS011;68290;44.716;37.756;2023-02-28T17:08:43;9.18;;;4.13;;
78901;SDS011;68290;44.716;37.756;2023-02-28T17:09:45;9.65;;;4.80;;
78901;SDS011;68290;44.716;37.756;2023-02-28T17:10:46;8.68;;;4.45;;
78901;SDS011;68290;44.716;37.756;2023-02-28T17:11:48;9.20;;;4.63;;
78901;SDS011;68290;44.716;37.756;2023-02-28T17:12:50;9.48;;;4.80;;
78901;SDS011;68290;44.716;37.756;2023-02-28T17:13:51;9.90;;;5.13;;
78901;SDS011;68290;44.716;37.756;2023-02-28T17:14:54;8.43;;;4.38;;
78901;SDS011;68290;44.716;37.756;2023-02-28T17:15:55;8.75;;;4.25;;
78901;SDS011;68290;44.716;37.756;2023-02-28T17:16:57;8.27;;;4.15;;
78901;SDS011;68290;44.716;37.756;2023-02-28T17:17:58;9.35;;;4.65;;
78901;SDS011;68290;44.716;37.756;2023-02-28T17:19:01;9.27;;;4.38;;
78901;SDS011;68290;44.716;37.756;2023-02-28T17:20:04;9.02;;;4.90;;
78901;SDS011;68290;44.716;37.756;2023-02-28T17:21:42;8.48;;;4.78;;
78901;SDS011;68290;44.716;37.756;2023-02-28T17:22:43;7.90;;;4.30;;
78901;SDS011;68290;44.716;37.756;2023-02-28T17:23:45;9.00;;;4.75;;
78901;SDS011;68290;44.716;37.756;2023-02-28T17:24:46;8.57;;;4.82;;
78901;SDS011;68290;44.716;37.756;2023-02-28T17:25:48;10.20;;;5.68;;
78901;SDS011;68290;44.716;37.756;2023-02-28T17:26:53;10.23;;;4.93;;
78901;SDS011;68290;44.716;37.756;2023-02-28T17:27:55;8.20;;;4.65;;
78901;SDS011;68290;44.716;37.756;2023-02-28T17:28:56;8.25;;;4.50;;
78901;SDS011;68290;44.716;37.756;2023-02-28T17:29:58;9.48;;;4.40;;
78901;SDS011;68290;44.716;37.756;2023-02-28T17:31:00;8.30;;;4.22;;
78901;SDS011;68290;44.716;37.756;2023-02-28T17:32:01;8.25;;;4.80;;
78901;SDS011;68290;44.716;37.756;2023-02-28T17:33:03;9.70;;;4.55;;
78901;SDS011;68290;44.716;37.756;2023-02-28T17:34:05;8.80;;;4.40;;
78901;SDS011;68290;44.716;37.756;2023-02-28T17:35:09;8.57;;;4.75;;
78901;SDS011;68290;44.716;37.756;2023-02-28T17:36:15;8.40;;;4.57;;
78901;SDS011;68290;44.716;37.756;2023-02-28T17:37:22;9.13;;;4.57;;
78901;SDS011;68290;44.716;37.756;2023-02-28T17:38:24;9.73;;;4.70;;
78901;SDS011;68290;44.716;37.756;2023-02-28T17:39:25;11.63;;;5.18;;
78901;SDS011;68290;44.716;37.756;2023-02-28T17:40:27;9.48;;;4.82;;
78901;SDS011;68290;44.716;37.756;2023-02-28T17:41:28;11.43;;;4.80;;
78901;SDS011;68290;44.716;37.756;2023-02-28T17:42:31;9.63;;;4.25;;
78901;SDS011;68290;44.716;37.756;2023-02-28T17:43:32;8.60;;;4.38;;
78901;SDS011;68290;44.716;37.756;2023-02-28T17:44:34;7.88;;;3.83;;
78901;SDS011;68290;44.716;37.756;2023-02-28T17:45:35;8.40;;;4.47;;
78901;SDS011;68290;44.716;37.756;2023-02-28T17:46:37;7.88;;;4.15;;
78901;SDS011;68290;44.716;37.756;2023-02-28T17:47:38;8.43;;;4.18;;
78901;SDS011;68290;44.716;37.756;2023-02-28T17:48:41;9.07;;;4.40;;
78901;SDS011;68290;44.716;37.756;2023-02-28T17:49:42;8.90;;;4.53;;
78901;SDS011;68290;44.716;37.756;2023-02-28T17:51:45;7.82;;;4.10;;
78901;SDS011;68290;44.716;37.756;2023-02-28T17:52:48;8.63;;;3.97;;
78901;SDS011;68290;44.716;37.756;2023-02-28T17:53:51;9.25;;;3.92;;
78901;SDS011;68290;44.716;37.756;2023-02-28T17:54:52;7.55;;;4.22;;
78901;SDS011;68290;44.716;37.756;2023-02-28T17:55:54;9.25;;;3.75;;
78901;SDS011;68290;44.716;37.756;2023-02-28T17:56:55;8.32;;;4.28;;
78901;SDS011;68290;44.716;37.756;2023-02-28T17:58:01;11.00;;;4.38;;
78901;SDS011;68290;44.716;37.756;2023-02-28T17:59:03;8.13;;;4.25;;
78901;SDS011;68290;44.716;37.756;2023-02-28T18:00:05;8.43;;;3.92;;
78901;SDS011;68290;44.716;37.756;2023-02-28T18:01:12;8.90;;;3.90;;
78901;SDS011;68290;44.716;37.756;2023-02-28T18:02:13;9.30;;;4.45;;
78901;SDS011;68290;44.716;37.756;2023-02-28T18:04:17;8.48;;;4.00;;
78901;SDS011;68290;44.716;37.756;2023-02-28T18:05:18;7.85;;;3.65;;
78901;SDS011;68290;44.716;37.756;2023-02-28T18:06:47;8.63;;;3.67;;
78901;SDS011;68290;44.716;37.756;2023-02-28T18:07:48;8.50;;;3.53;;
78901;SDS011;68290;44.716;37.756;2023-02-28T18:08:50;10.43;;;4.40;;
78901;SDS011;68290;44.716;37.756;2023-02-28T18:09:52;11.15;;;4.93;;
78901;SDS011;68290;44.716;37.756;2023-02-28T18:10:53;13.32;;;4.90;;
78901;SDS011;68290;44.716;37.756;2023-02-28T18:11:59;12.38;;;4.72;;
78901;SDS011;68290;44.716;37.756;2023-02-28T18:13:00;11.27;;;4.82;;
78901;SDS011;68290;44.716;37.756;2023-02-28T18:14:04;12.88;;;4.72;;
78901;SDS011;68290;44.716;37.756;2023-02-28T18:15:05;14.57;;;5.68;;
78901;SDS011;68290;44.716;37.756;2023-02-28T18:16:07;12.57;;;4.93;;
78901;SDS011;68290;44.716;37.756;2023-02-28T18:17:09;11.50;;;4.95;;
78901;SDS011;68290;44.716;37.756;2023-02-28T18:18:13;13.15;;;5.20;;
78901;SDS011;68290;44.716;37.756;2023-02-28T18:19:16;13.25;;;5.07;;
78901;SDS011;68290;44.716;37.756;2023-02-28T18:20:17;16.80;;;4.88;;
78901;SDS011;68290;44.716;37.756;2023-02-28T18:21:19;12.63;;;4.75;;
78901;SDS011;68290;44.716;37.756;2023-02-28T18:22:20;11.70;;;4.55;;
78901;SDS011;68290;44.716;37.756;2023-02-28T18:23:22;12.07;;;4.68;;
78901;SDS011;68290;44.716;37.756;2023-02-28T18:24:23;13.07;;;4.22;;
78901;SDS011;68290;44.716;37.756;2023-02-28T18:25:25;11.82;;;4.35;;
78901;SDS011;68290;44.716;37.756;2023-02-28T18:26:26;9.85;;;4.35;;
78901;SDS011;68290;44.716;37.756;2023-02-28T18:27:28;9.93;;;4.40;;
78901;SDS011;68290;44.716;37.756;2023-02-28T18:28:29;10.88;;;4.55;;
78901;SDS011;68290;44.716;37.756;2023-02-28T18:29:35;11.88;;;4.85;;
78901;SDS011;68290;44.716;37.756;2023-02-28T18:30:37;12.65;;;4.63;;
78901;SDS011;68290;44.716;37.756;2023-02-28T18:31:40;12.23;;;4.72;;
78901;SDS011;68290;44.716;37.756;2023-02-28T18:32:41;10.07;;;4.28;;
78901;SDS011;68290;44.716;37.756;2023-02-28T18:33:43;10.50;;;4.00;;
78901;SDS011;68290;44.716;37.756;2023-02-28T18:34:47;9.13;;;4.47;;
78901;SDS011;68290;44.716;37.756;2023-02-28T18:35:54;12.40;;;4.25;;
78901;SDS011;68290;44.716;37.756;2023-02-28T18:36:57;9.95;;;4.22;;
78901;SDS011;68290;44.716;37.756;2023-02-28T18:37:58;10.57;;;4.55;;
78901;SDS011;68290;44.716;37.756;2023-02-28T18:39:26;11.80;;;4.70;;
78901;SDS011;68290;44.716;37.756;2023-02-28T18:40:28;8.52;;;4.13;;
78901;SDS011;68290;44.716;37.756;2023-02-28T18:41:29;9.90;;;3.72;;
78901;SDS011;68290;44.716;37.756;2023-02-28T18:42:31;10.90;;;4.32;;
78901;SDS011;68290;44.716;37.756;2023-02-28T18:43:33;10.95;;;4.95;;
78901;SDS011;68290;44.716;37.756;2023-02-28T18:44:36;11.95;;;4.03;;
78901;SDS011;68290;44.716;37.756;2023-02-28T18:45:38;10.57;;;4.10;;
78901;SDS011;68290;44.716;37.756;2023-02-28T18:46:39;10.32;;;3.92;;
78901;SDS011;68290;44.716;37.756;2023-02-28T18:47:40;8.05;;;3.70;;
78901;SDS011;68290;44.716;37.756;2023-02-28T18:48:42;10.18;;;4.32;;
78901;SDS011;68290;44.716;37.756;2023-02-28T18:49:43;9.35;;;4.30;;
78901;SDS011;68290;44.716;37.756;2023-02-28T18:50:45;9.57;;;4.30;;
78901;SDS011;68290;44.716;37.756;2023-02-28T18:51:46;9.68;;;3.83;;
78901;SDS011;68290;44.716;37.756;2023-02-28T18:52:48;8.95;;;3.92;;
78901;SDS011;68290;44.716;37.756;2023-02-28T18:53:51;11.00;;;4.28;;
78901;SDS011;68290;44.716;37.756;2023-02-28T18:54:53;9.52;;;4.05;;
78901;SDS011;68290;44.716;37.756;2023-02-28T18:55:58;7.93;;;3.78;;
78901;SDS011;68290;44.716;37.756;2023-02-28T18:57:00;6.82;;;3.20;;
78901;SDS011;68290;44.716;37.756;2023-02-28T18:58:02;8.60;;;3.42;;
78901;SDS011;68290;44.716;37.756;2023-02-28T18:59:15;8.40;;;3.60;;
78901;SDS011;68290;44.716;37.756;2023-02-28T19:00:17;9.30;;;3.70;;
78901;SDS011;68290;44.716;37.756;2023-02-28T19:01:26;8.38;;;3.42;;
78901;SDS011;68290;44.716;37.756;2023-02-28T19:02:38;7.78;;;3.67;;
78901;SDS011;68290;44.716;37.756;2023-02-28T19:03:40;9.10;;;3.97;;
78901;SDS011;68290;44.716;37.756;2023-02-28T19:04:41;8.25;;;3.33;;
78901;SDS011;68290;44.716;37.756;2023-02-28T19:05:43;10.07;;;3.80;;
78901;SDS011;68290;44.716;37.756;2023-02-28T19:06:44;9.27;;;3.55;;
78901;SDS011;68290;44.716;37.756;2023-02-28T19:07:45;8.18;;;3.60;;
78901;SDS011;68290;44.716;37.756;2023-02-28T19:08:51;8.35;;;3.58;;
78901;SDS011;68290;44.716;37.756;2023-02-28T19:09:54;10.75;;;3.80;;
78901;SDS011;68290;44.716;37.756;2023-02-28T19:10:55;9.80;;;3.70;;
78901;SDS011;68290;44.716;37.756;2023-02-28T19:11:57;9.50;;;3.10;;
78901;SDS011;68290;44.716;37.756;2023-02-28T19:12:58;7.25;;;3.60;;
78901;SDS011;68290;44.716;37.756;2023-02-28T19:13:59;8.00;;;3.47;;
78901;SDS011;68290;44.716;37.756;2023-02-28T19:15:02;9.07;;;3.28;;
78901;SDS011;68290;44.716;37.756;2023-02-28T19:16:09;7.65;;;3.53;;
78901;SDS011;68290;44.716;37.756;2023-02-28T19:17:11;7.95;;;3.78;;
78901;SDS011;68290;44.716;37.756;2023-02-28T19:18:15;8.63;;;3.33;;
78901;SDS011;68290;44.716;37.756;2023-02-28T19:19:17;7.93;;;3.40;;
78901;SDS011;68290;44.716;37.756;2023-02-28T19:20:18;7.15;;;3.30;;
78901;SDS011;68290;44.716;37.756;2023-02-28T19:21:21;8.32;;;3.17;;
78901;SDS011;68290;44.716;37.756;2023-02-28T19:22:24;8.00;;;3.50;;
78901;SDS011;68290;44.716;37.756;2023-02-28T19:23:26;7.05;;;3.47;;
78901;SDS011;68290;44.716;37.756;2023-02-28T19:24:28;6.90;;;3.40;;
78901;SDS011;68290;44.716;37.756;2023-02-28T19:25:29;7.03;;;3.33;;
78901;SDS011;68290;44.716;37.756;2023-02-28T19:26:30;8.40;;;3.53;;
78901;SDS011;68290;44.716;37.756;2023-02-28T19:27:32;10.18;;;3.55;;
78901;SDS011;68290;44.716;37.756;2023-02-28T19:28:33;7.18;;;3.40;;
78901;SDS011;68290;44.716;37.756;2023-02-28T19:29:35;7.53;;;3.70;;
78901;SDS011;68290;44.716;37.756;2023-02-28T19:30:36;6.40;;;3.25;;
78901;SDS011;68290;44.716;37.756;2023-02-28T19:31:38;7.20;;;3.65;;
78901;SDS011;68290;44.716;37.756;2023-02-28T19:32:39;7.22;;;3.15;;
78901;SDS011;68290;44.716;37.756;2023-02-28T19:33:40;6.68;;;3.28;;
78901;SDS011;68290;44.716;37.756;2023-02-28T19:34:42;8.00;;;3.50;;
78901;SDS011;68290;44.716;37.756;2023-02-28T19:35:43;5.93;;;2.97;;
78901;SDS011;68290;44.716;37.756;2023-02-28T19:36:45;7.15;;;3.10;;
78901;SDS011;68290;44.716;37.756;2023-02-28T19:37:46;6.78;;;3.10;;
78901;SDS011;68290;44.716;37.756;2023-02-28T19:38:47;6.93;;;3.30;;
78901;SDS011;68290;44.716;37.756;2023-02-28T19:39:49;8.07;;;3.30;;
78901;SDS011;68290;44.716;37.756;2023-02-28T19:41:03;6.68;;;3.25;;
78901;SDS011;68290;44.716;37.756;2023-02-28T19:42:13;7.30;;;2.80;;
78901;SDS011;68290;44.716;37.756;2023-02-28T19:43:15;7.15;;;3.00;;
78901;SDS011;68290;44.716;37.756;2023-02-28T19:44:16;6.97;;;3.00;;
78901;SDS011;68290;44.716;37.756;2023-02-28T19:45:18;6.03;;;3.05;;
78901;SDS011;68290;44.716;37.756;2023-02-28T19:46:19;8.13;;;3.13;;
78901;SDS011;68290;44.716;37.756;2023-02-28T19:47:20;7.05;;;3.25;;
78901;SDS011;68290;44.716;37.756;2023-02-28T19:48:24;7.20;;;3.15;;
78901;SDS011;68290;44.716;37.756;2023-02-28T19:49:27;5.90;;;2.78;;
78901;SDS011;68290;44.716;37.756;2023-02-28T19:50:29;6.45;;;3.20;;
78901;SDS011;68290;44.716;37.756;2023-02-28T19:52:33;7.28;;;2.97;;
78901;SDS011;68290;44.716;37.756;2023-02-28T19:53:36;7.35;;;3.35;;
78901;SDS011;68290;44.716;37.756;2023-02-28T19:54:38;6.55;;;3.22;;
78901;SDS011;68290;44.716;37.756;2023-02-28T19:55:39;6.63;;;3.22;;
78901;SDS011;68290;44.716;37.756;2023-02-28T19:56:40;7.20;;;2.92;;
78901;SDS011;68290;44.716;37.756;2023-02-28T19:57:42;8.68;;;3.50;;
78901;SDS011;68290;44.716;37.756;2023-02-28T19:58:44;7.10;;;3.55;;
78901;SDS011;68290;44.716;37.756;2023-02-28T19:59:45;6.72;;;3.28;;
78901;SDS011;68290;44.716;37.756;2023-02-28T20:00:47;8.02;;;3.35;;
78901;SDS011;68290;44.716;37.756;2023-02-28T20:01:48;7.00;;;3.17;;
78901;SDS011;68290;44.716;37.756;2023-02-28T20:02:50;7.60;;;3.22;;
78901;SDS011;68290;44.716;37.756;2023-02-28T20:03:52;8.02;;;3.50;;
78901;SDS011;68290;44.716;37.756;2023-02-28T20:04:53;6.60;;;3.17;;
78901;SDS011;68290;44.716;37.756;2023-02-28T20:06:00;7.18;;;3.30;;
78901;SDS011;68290;44.716;37.756;2023-02-28T20:07:04;6.95;;;3.20;;
78901;SDS011;68290;44.716;37.756;2023-02-28T20:08:06;7.15;;;3.40;;
78901;SDS011;68290;44.716;37.756;2023-02-28T20:09:08;8.15;;;3.60;;
78901;SDS011;68290;44.716;37.756;2023-02-28T20:10:09;6.30;;;3.30;;
78901;SDS011;68290;44.716;37.756;2023-02-28T20:11:12;7.38;;;3.28;;
78901;SDS011;68290;44.716;37.756;2023-02-28T20:12:15;7.18;;;3.20;;
78901;SDS011;68290;44.716;37.756;2023-02-28T20:13:17;6.45;;;3.28;;
78901;SDS011;68290;44.716;37.756;2023-02-28T20:14:19;7.95;;;2.78;;
78901;SDS011;68290;44.716;37.756;2023-02-28T20:15:20;7.20;;;3.00;;
78901;SDS011;68290;44.716;37.756;2023-02-28T20:16:22;6.70;;;3.28;;
78901;SDS011;68290;44.716;37.756;2023-02-28T20:17:24;8.10;;;3.00;;
78901;SDS011;68290;44.716;37.756;2023-02-28T20:18:25;6.22;;;3.30;;
78901;SDS011;68290;44.716;37.756;2023-02-28T20:19:26;6.93;;;3.10;;
78901;SDS011;68290;44.716;37.756;2023-02-28T20:20:28;5.82;;;2.90;;
78901;SDS011;68290;44.716;37.756;2023-02-28T20:21:29;6.70;;;2.80;;
78901;SDS011;68290;44.716;37.756;2023-02-28T20:22:30;6.88;;;2.83;;
78901;SDS011;68290;44.716;37.756;2023-02-28T20:23:32;5.85;;;2.42;;
78901;SDS011;68290;44.716;37.756;2023-02-28T20:24:33;6.45;;;2.88;;
78901;SDS011;68290;44.716;37.756;2023-02-28T20:25:37;6.97;;;2.80;;
78901;SDS011;68290;44.716;37.756;2023-02-28T20:26:39;6.95;;;3.17;;
78901;SDS011;68290;44.716;37.756;2023-02-28T20:27:40;5.57;;;2.53;;
78901;SDS011;68290;44.716;37.756;2023-02-28T20:28:42;7.30;;;2.80;;
78901;SDS011;68290;44.716;37.756;2023-02-28T20:29:43;5.70;;;2.70;;
78901;SDS011;68290;44.716;37.756;2023-02-28T20:30:45;6.60;;;3.00;;
78901;SDS011;68290;44.716;37.756;2023-02-28T20:31:48;5.50;;;2.63;;
78901;SDS011;68290;44.716;37.756;2023-02-28T20:32:49;5.25;;;2.40;;
78901;SDS011;68290;44.716;37.756;2023-02-28T20:33:51;6.18;;;2.67;;
78901;SDS011;68290;44.716;37.756;2023-02-28T20:34:53;7.82;;;2.75;;
78901;SDS011;68290;44.716;37.756;2023-02-28T20:35:58;6.85;;;2.58;;
78901;SDS011;68290;44.716;37.756;2023-02-28T20:37:05;5.60;;;2.63;;
78901;SDS011;68290;44.716;37.756;2023-02-28T20:38:06;5.55;;;2.55;;
78901;SDS011;68290;44.716;37.756;2023-02-28T20:39:08;6.80;;;2.72;;
78901;SDS011;68290;44.716;37.756;2023-02-28T20:40:10;7.82;;;2.83;;
78901;SDS011;68290;44.716;37.756;2023-02-28T20:41:12;5.85;;;2.58;;
78901;SDS011;68290;44.716;37.756;2023-02-28T20:43:18;6.63;;;2.40;;
78901;SDS011;68290;44.716;37.756;2023-02-28T20:44:19;5.20;;;2.50;;
78901;SDS011;68290;44.716;37.756;2023-02-28T20:45:21;5.38;;;2.70;;
78901;SDS011;68290;44.716;37.756;2023-02-28T20:46:24;5.10;;;2.40;;
78901;SDS011;68290;44.716;37.756;2023-02-28T20:47:26;4.95;;;2.17;;
78901;SDS011;68290;44.716;37.756;2023-02-28T20:48:28;5.80;;;2.38;;
78901;SDS011;68290;44.716;37.756;2023-02-28T20:49:30;6.07;;;2.53;;
78901;SDS011;68290;44.716;37.756;2023-02-28T20:50:31;6.30;;;2.50;;
78901;SDS011;68290;44.716;37.756;2023-02-28T20:51:33;5.53;;;2.58;;
78901;SDS011;68290;44.716;37.756;2023-02-28T20:52:36;5.20;;;2.30;;
78901;SDS011;68290;44.716;37.756;2023-02-28T20:53:38;5.97;;;2.35;;
78901;SDS011;68290;44.716;37.756;2023-02-28T20:54:39;4.00;;;1.98;;
78901;SDS011;68290;44.716;37.756;2023-02-28T20:55:40;5.05;;;2.28;;
78901;SDS011;68290;44.716;37.756;2023-02-28T20:56:42;4.82;;;2.08;;
78901;SDS011;68290;44.716;37.756;2023-02-28T20:57:43;5.70;;;2.05;;
78901;SDS011;68290;44.716;37.756;2023-02-28T20:58:45;5.13;;;2.42;;
78901;SDS011;68290;44.716;37.756;2023-02-28T20:59:48;4.85;;;2.38;;
78901;SDS011;68290;44.716;37.756;2023-02-28T21:00:49;7.10;;;2.47;;
78901;SDS011;68290;44.716;37.756;2023-02-28T21:01:51;5.28;;;2.45;;
78901;SDS011;68290;44.716;37.756;2023-02-28T21:02:55;5.15;;;2.35;;
78901;SDS011;68290;44.716;37.756;2023-02-28T21:03:59;5.25;;;2.53;;
78901;SDS011;68290;44.716;37.756;2023-02-28T21:05:02;4.68;;;1.98;;
78901;SDS011;68290;44.716;37.756;2023-02-28T21:06:04;4.45;;;1.88;;
78901;SDS011;68290;44.716;37.756;2023-02-28T21:07:06;6.20;;;2.10;;
78901;SDS011;68290;44.716;37.756;2023-02-28T21:08:07;5.25;;;2.47;;
78901;SDS011;68290;44.716;37.756;2023-02-28T21:09:10;5.85;;;2.22;;
78901;SDS011;68290;44.716;37.756;2023-02-28T21:10:13;5.82;;;2.22;;
78901;SDS011;68290;44.716;37.756;2023-02-28T21:11:16;4.85;;;1.95;;
78901;SDS011;68290;44.716;37.756;2023-02-28T21:12:19;5.55;;;2.17;;
78901;SDS011;68290;44.716;37.756;2023-02-28T21:13:21;4.75;;;1.90;;
78901;SDS011;68290;44.716;37.756;2023-02-28T21:14:23;4.95;;;2.17;;
78901;SDS011;68290;44.716;37.756;2023-02-28T21:15:25;5.03;;;2.25;;
78901;SDS011;68290;44.716;37.756;2023-02-28T21:16:26;4.93;;;2.30;;
78901;SDS011;68290;44.716;37.756;2023-02-28T21:17:29;4.32;;;1.90;;
78901;SDS011;68290;44.716;37.756;2023-02-28T21:18:32;4.72;;;1.90;;
78901;SDS011;68290;44.716;37.756;2023-02-28T21:19:35;5.75;;;2.20;;
78901;SDS011;68290;44.716;37.756;2023-02-28T21:20:36;4.60;;;2.30;;
78901;SDS011;68290;44.716;37.756;2023-02-28T21:21:41;5.30;;;2.15;;
78901;SDS011;68290;44.716;37.756;2023-02-28T21:22:43;5.10;;;2.28;;
78901;SDS011;68290;44.716;37.756;2023-02-28T21:23:45;4.82;;;2.13;;
78901;SDS011;68290;44.716;37.756;2023-02-28T21:24:47;4.70;;;2.20;;
78901;SDS011;68290;44.716;37.756;2023-02-28T21:25:48;4.72;;;1.90;;
78901;SDS011;68290;44.716;37.756;2023-02-28T21:26:50;5.55;;;2.50;;
78901;SDS011;68290;44.716;37.756;2023-02-28T21:27:53;3.85;;;1.80;;
78901;SDS011;68290;44.716;37.756;2023-02-28T21:28:56;4.50;;;2.20;;
78901;SDS011;68290;44.716;37.756;2023-02-28T21:29:59;4.97;;;2.13;;
78901;SDS011;68290;44.716;37.756;2023-02-28T21:31:02;4.78;;;1.98;;
78901;SDS011;68290;44.716;37.756;2023-02-28T21:32:04;4.88;;;2.22;;
78901;SDS011;68290;44.716;37.756;2023-02-28T21:33:07;4.72;;;2.03;;
78901;SDS011;68290;44.716;37.756;2023-02-28T21:34:10;5.22;;;2.10;;
78901;SDS011;68290;44.716;37.756;2023-02-28T21:35:12;5.80;;;1.90;;
78901;SDS011;68290;44.716;37.756;2023-02-28T21:36:16;5.00;;;2.08;;
78901;SDS011;68290;44.716;37.756;2023-02-28T21:37:19;4.32;;;1.90;;
78901;SDS011;68290;44.716;37.756;2023-02-28T21:38:20;5.35;;;1.90;;
78901;SDS011;68290;44.716;37.756;2023-02-28T21:39:25;5.82;;;1.90;;
78901;SDS011;68290;44.716;37.756;2023-02-28T21:40:29;5.53;;;2.13;;
78901;SDS011;68290;44.716;37.756;2023-02-28T21:41:30;5.07;;;2.05;;
78901;SDS011;68290;44.716;37.756;2023-02-28T21:42:32;4.80;;;2.00;;
78901;SDS011;68290;44.716;37.756;2023-02-28T21:43:34;4.50;;;2.00;;
78901;SDS011;68290;44.716;37.756;2023-02-28T21:44:35;4.47;;;1.85;;
78901;SDS011;68290;44.716;37.756;2023-02-28T21:45:37;4.00;;;1.80;;
78901;SDS011;68290;44.716;37.756;2023-02-28T21:46:38;4.68;;;2.17;;
78901;SDS011;68290;44.716;37.756;2023-02-28T21:47:40;4.93;;;2.00;;
78901;SDS011;68290;44.716;37.756;2023-02-28T21:48:41;4.70;;;2.00;;
78901;SDS011;68290;44.716;37.756;2023-02-28T21:49:43;4.93;;;1.90;;